Time,TemperatureF,DewpointF,PressureIn,WindDirection,WindDirectionDegrees,WindSpeedMPH,WindSpeedGustMPH,Humidity,HourlyPrecipIn,Conditions,Clouds,dailyrainin,SoftwareType,DateUTC
2013-01-26 00:00:00,25.7,15.7,29.99,South,178,3.2,4.5,65,0.00,,---,0.00,VWS V14.01,2013-01-26 05:00:00,
2013-01-26 00:01:00,25.7,15.7,29.99,South,179,3.9,3.9,65,0.00,,---,0.00,VWS V14.01,2013-01-26 05:01:00,
2013-01-26 00:02:00,25.7,15.7,29.99,South,186,4.5,4.5,65,0.00,,---,0.00,VWS V14.01,2013-01-26 05:02:00,
2013-01-26 00:07:00,25.9,15.9,29.99,South,190,0.0,0.0,65,0.00,,---,0.00,VWS V14.01,2013-01-26 05:07:00,
2013-01-26 00:12:00,26.1,16.0,29.99,SSW,209,3.9,3.9,65,0.00,,---,0.00,VWS V14.01,2013-01-26 05:12:00,
2013-01-26 00:17:00,26.1,16.0,29.99,SSW,202,0.0,0.0,65,0.00,,---,0.00,VWS V14.01,2013-01-26 05:17:00,
2013-01-26 00:22:00,26.1,16.0,29.99,SSW,213,0.0,0.0,65,0.00,,---,0.00,VWS V14.01,2013-01-26 05:22:00,
2013-01-26 00:28:00,26.1,16.0,29.99,SSW,209,0.0,0.0,65,0.00,,---,0.00,VWS V14.01,2013-01-26 05:28:00,
2013-01-26 00:33:00,26.1,16.0,29.99,SW,228,5.8,5.8,65,0.00,,---,0.00,VWS V14.01,2013-01-26 05:33:00,
2013-01-26 00:38:00,26.1,16.0,29.99,SW,218,0.0,0.0,65,0.00,,---,0.00,VWS V14.01,2013-01-26 05:38:00,
2013-01-26 00:43:00,26.1,16.0,29.99,SW,215,0.0,0.0,65,0.00,,---,0.00,VWS V14.01,2013-01-26 05:43:00,
2013-01-26 00:48:00,26.1,16.0,29.99,SW,217,0.0,0.0,65,0.00,,---,0.00,VWS V14.01,2013-01-26 05:48:00,
2013-01-26 00:53:00,26.1,16.0,29.99,SSW,213,0.0,0.0,65,0.00,,---,0.00,VWS V14.01,2013-01-26 05:53:00,
2013-01-26 00:59:00,26.1,16.0,29.99,SW,223,0.0,0.0,65,0.00,,---,0.00,VWS V14.01,2013-01-26 05:59:00,
2013-01-26 01:04:00,26.1,16.0,29.99,SW,217,0.0,0.0,65,0.00,,---,0.00,VWS V14.01,2013-01-26 06:04:00,
2013-01-26 01:09:00,26.1,16.0,29.99,SW,226,0.0,0.0,65,0.00,,---,0.00,VWS V14.01,2013-01-26 06:09:00,
2013-01-26 01:14:00,26.1,16.0,29.99,SW,216,0.0,0.0,65,0.00,,---,0.00,VWS V14.01,2013-01-26 06:14:00,
2013-01-26 01:19:00,26.1,16.0,29.99,SSW,196,3.9,3.9,65,0.00,,---,0.00,VWS V14.01,2013-01-26 06:19:00,
2013-01-26 01:24:00,25.9,15.9,29.99,South,170,3.2,3.9,65,0.00,,---,0.00,VWS V14.01,2013-01-26 06:24:00,
2013-01-26 01:29:00,25.7,15.7,29.99,South,177,0.0,3.9,65,0.00,,---,0.00,VWS V14.01,2013-01-26 06:29:00,
2013-01-26 01:34:00,25.7,16.2,29.99,SE,144,3.9,5.2,67,0.00,,---,0.00,VWS V14.01,2013-01-26 06:34:00,
2013-01-26 01:40:00,25.7,16.2,29.99,SSE,155,3.9,3.9,67,0.00,,---,0.00,VWS V14.01,2013-01-26 06:40:00,
2013-01-26 01:45:00,25.3,15.4,29.99,SSE,153,5.8,5.8,65,0.00,,---,0.00,VWS V14.01,2013-01-26 06:45:00,
2013-01-26 01:50:00,25.3,15.8,29.99,SE,146,4.5,5.2,67,0.00,,---,0.00,VWS V14.01,2013-01-26 06:50:00,
2013-01-26 01:55:00,25.3,15.8,29.99,SSE,156,3.9,5.2,67,0.00,,---,0.00,VWS V14.01,2013-01-26 06:55:00,
2013-01-26 02:00:00,25.5,16.0,29.99,SE,139,3.9,5.2,67,0.00,,---,0.00,VWS V14.01,2013-01-26 07:00:00,
2013-01-26 02:05:00,25.5,16.0,29.99,SSE,149,3.9,3.9,67,0.00,,---,0.00,VWS V14.01,2013-01-26 07:05:00,
2013-01-26 02:11:00,25.5,16.0,29.99,SE,146,5.2,5.2,67,0.00,,---,0.00,VWS V14.01,2013-01-26 07:11:00,
2013-01-26 02:16:00,25.3,15.8,29.99,SSE,155,3.2,3.2,67,0.00,,---,0.00,VWS V14.01,2013-01-26 07:16:00,
2013-01-26 02:21:00,25.3,15.8,29.99,SSE,153,0.0,0.0,67,0.00,,---,0.00,VWS V14.01,2013-01-26 07:21:00,
2013-01-26 02:26:00,25.0,15.5,29.99,SSE,152,0.0,0.0,67,0.00,,---,0.00,VWS V14.01,2013-01-26 07:26:00,
2013-01-26 02:31:00,24.6,15.1,29.99,SE,145,4.5,4.5,67,0.00,,---,0.00,VWS V14.01,2013-01-26 07:31:00,
2013-01-26 02:36:00,24.4,15.0,29.99,SE,142,5.2,5.2,67,0.00,,---,0.00,VWS V14.01,2013-01-26 07:36:00,
2013-01-26 02:41:00,24.3,14.8,29.99,SSE,149,3.2,4.5,67,0.00,,---,0.00,VWS V14.01,2013-01-26 07:41:00,
2013-01-26 02:46:00,23.9,14.5,29.99,SSE,147,4.5,4.5,67,0.00,,---,0.00,VWS V14.01,2013-01-26 07:46:00,
2013-01-26 02:51:00,23.7,14.3,29.99,SSE,147,3.9,5.8,67,0.00,,---,0.00,VWS V14.01,2013-01-26 07:51:00,
2013-01-26 02:57:00,23.5,14.1,29.99,SSE,159,0.0,0.0,67,0.00,,---,0.00,VWS V14.01,2013-01-26 07:57:00,
2013-01-26 03:02:00,23.4,13.9,29.99,SSE,147,0.0,0.0,67,0.00,,---,0.00,VWS V14.01,2013-01-26 08:02:00,
2013-01-26 03:07:00,23.0,13.6,29.99,North,353,4.5,4.5,67,0.00,,---,0.00,VWS V14.01,2013-01-26 08:07:00,
2013-01-26 03:12:00,22.5,13.1,30.02,NNE,23,0.0,0.0,67,0.00,,---,0.00,VWS V14.01,2013-01-26 08:12:00,
2013-01-26 03:17:00,22.1,12.7,30.02,NNE,24,0.0,0.0,67,0.00,,---,0.00,VWS V14.01,2013-01-26 08:17:00,
2013-01-26 03:22:00,21.9,12.6,30.02,NNE,24,0.0,0.0,67,0.00,,---,0.00,VWS V14.01,2013-01-26 08:22:00,
2013-01-26 03:27:00,21.9,12.6,30.02,NNE,23,0.0,0.0,67,0.00,,---,0.00,VWS V14.01,2013-01-26 08:27:00,
2013-01-26 03:32:00,21.7,12.4,30.02,North,357,0.0,0.0,67,0.00,,---,0.00,VWS V14.01,2013-01-26 08:32:00,
2013-01-26 03:38:00,21.4,12.1,30.02,North,357,0.0,0.0,67,0.00,,---,0.00,VWS V14.01,2013-01-26 08:38:00,
2013-01-26 03:43:00,21.2,12.3,30.02,North,0,3.9,5.2,68,0.00,,---,0.00,VWS V14.01,2013-01-26 08:43:00,
2013-01-26 03:48:00,20.8,12.0,30.02,North,357,5.8,5.8,68,0.00,,---,0.00,VWS V14.01,2013-01-26 08:48:00,
2013-01-26 03:53:00,20.8,12.0,30.02,NNW,342,3.9,3.9,68,0.00,,---,0.00,VWS V14.01,2013-01-26 08:53:00,
2013-01-26 03:58:00,20.7,11.8,30.02,NNE,27,0.0,4.5,68,0.00,,---,0.00,VWS V14.01,2013-01-26 08:58:00,
2013-01-26 04:03:00,20.5,11.6,30.02,North,0,0.0,5.2,68,0.00,,---,0.00,VWS V14.01,2013-01-26 09:03:00,
2013-01-26 04:08:00,20.5,11.6,30.02,NNE,27,0.0,0.0,68,0.00,,---,0.00,VWS V14.01,2013-01-26 09:08:00,
2013-01-26 04:13:00,20.3,11.5,30.02,NNE,21,0.0,0.0,68,0.00,,---,0.00,VWS V14.01,2013-01-26 09:13:00,
2013-01-26 04:18:00,20.3,11.5,30.02,NNE,21,0.0,0.0,68,0.00,,---,0.00,VWS V14.01,2013-01-26 09:18:00,
2013-01-26 04:23:00,20.3,11.5,30.02,NNE,20,0.0,0.0,68,0.00,,---,0.00,VWS V14.01,2013-01-26 09:23:00,
2013-01-26 04:29:00,20.1,11.3,30.05,NNE,20,0.0,0.0,68,0.00,,---,0.00,VWS V14.01,2013-01-26 09:29:00,
2013-01-26 04:34:00,19.9,11.1,30.05,NNE,20,0.0,0.0,68,0.00,,---,0.00,VWS V14.01,2013-01-26 09:34:00,
2013-01-26 04:39:00,19.6,10.8,30.05,NNE,20,0.0,0.0,68,0.00,,---,0.00,VWS V14.01,2013-01-26 09:39:00,
2013-01-26 04:44:00,19.4,11.1,30.05,NNE,20,0.0,0.0,70,0.00,,---,0.00,VWS V14.01,2013-01-26 09:44:00,
2013-01-26 04:49:00,19.2,10.9,30.05,NNE,20,0.0,0.0,70,0.00,,---,0.00,VWS V14.01,2013-01-26 09:49:00,
2013-01-26 04:54:00,19.2,10.9,30.05,NNE,20,0.0,0.0,70,0.00,,---,0.00,VWS V14.01,2013-01-26 09:54:00,
2013-01-26 04:59:00,19.0,10.7,30.05,NNE,20,0.0,0.0,70,0.00,,---,0.00,VWS V14.01,2013-01-26 09:59:00,
2013-01-26 05:04:00,18.9,10.6,30.05,NNE,20,0.0,0.0,70,0.00,,---,0.00,VWS V14.01,2013-01-26 10:04:00,
2013-01-26 05:10:00,18.7,10.4,30.05,NNE,20,0.0,0.0,70,0.00,,---,0.00,VWS V14.01,2013-01-26 10:10:00,
2013-01-26 05:15:00,18.7,10.4,30.05,NNE,20,0.0,0.0,70,0.00,,---,0.00,VWS V14.01,2013-01-26 10:15:00,
2013-01-26 05:20:00,18.7,10.4,30.05,NNE,20,0.0,0.0,70,0.00,,---,0.00,VWS V14.01,2013-01-26 10:20:00,
2013-01-26 05:25:00,18.5,10.2,30.05,NNE,20,0.0,0.0,70,0.00,,---,0.00,VWS V14.01,2013-01-26 10:25:00,
2013-01-26 05:30:00,18.5,10.2,30.05,SE,143,0.0,0.0,70,0.00,,---,0.00,VWS V14.01,2013-01-26 10:30:00,
2013-01-26 05:35:00,18.5,10.2,30.05,SE,138,0.0,0.0,70,0.00,,---,0.00,VWS V14.01,2013-01-26 10:35:00,
2013-01-26 05:40:00,18.3,10.0,30.05,SE,138,0.0,0.0,70,0.00,,---,0.00,VWS V14.01,2013-01-26 10:40:00,
2013-01-26 05:45:00,18.3,10.0,30.08,East,79,0.0,0.0,70,0.00,,---,0.00,VWS V14.01,2013-01-26 10:45:00,
2013-01-26 05:50:00,18.3,10.0,30.08,NE,36,0.0,0.0,70,0.00,,---,0.00,VWS V14.01,2013-01-26 10:50:00,
2013-01-26 05:56:00,18.5,10.6,30.08,NE,36,0.0,0.0,71,0.00,,---,0.00,VWS V14.01,2013-01-26 10:56:00,
2013-01-26 06:01:00,18.7,10.8,30.08,North,11,3.2,3.2,71,0.00,,---,0.00,VWS V14.01,2013-01-26 11:01:00,
2013-01-26 06:06:00,18.7,10.8,30.08,North,353,0.0,0.0,71,0.00,,---,0.00,VWS V14.01,2013-01-26 11:06:00,
2013-01-26 06:11:00,18.7,10.8,30.08,North,353,0.0,0.0,71,0.00,,---,0.00,VWS V14.01,2013-01-26 11:11:00,
2013-01-26 06:16:00,18.9,11.0,30.08,North,353,0.0,0.0,71,0.00,,---,0.00,VWS V14.01,2013-01-26 11:16:00,
2013-01-26 06:21:00,19.0,11.2,30.08,North,357,0.0,0.0,71,0.00,,---,0.00,VWS V14.01,2013-01-26 11:21:00,
2013-01-26 06:26:00,19.2,11.3,30.08,ESE,111,0.0,0.0,71,0.00,,---,0.00,VWS V14.01,2013-01-26 11:26:00,
2013-01-26 06:31:00,19.2,11.3,30.08,ESE,111,0.0,0.0,71,0.00,,---,0.00,VWS V14.01,2013-01-26 11:31:00,
2013-01-26 06:37:00,19.4,11.5,30.08,SE,126,0.0,0.0,71,0.00,,---,0.00,VWS V14.01,2013-01-26 11:37:00,
2013-01-26 06:42:00,19.6,11.7,30.11,SE,126,0.0,0.0,71,0.00,,---,0.00,VWS V14.01,2013-01-26 11:42:00,
2013-01-26 06:47:00,19.8,11.9,30.11,SE,126,0.0,0.0,71,0.00,,---,0.00,VWS V14.01,2013-01-26 11:47:00,
2013-01-26 06:52:00,19.9,12.5,30.11,SE,126,0.0,0.0,72,0.00,,---,0.00,VWS V14.01,2013-01-26 11:52:00,
2013-01-26 06:57:00,20.1,12.6,30.11,SE,126,0.0,0.0,72,0.00,,---,0.00,VWS V14.01,2013-01-26 11:57:00,
2013-01-26 07:02:00,20.1,12.6,30.11,SE,126,0.0,0.0,72,0.00,,---,0.00,VWS V14.01,2013-01-26 12:02:00,
2013-01-26 07:07:00,20.3,12.8,30.11,SE,126,0.0,0.0,72,0.00,,---,0.00,VWS V14.01,2013-01-26 12:07:00,
2013-01-26 07:13:00,20.3,12.8,30.11,SE,126,0.0,0.0,72,0.00,,---,0.00,VWS V14.01,2013-01-26 12:13:00,
2013-01-26 07:18:00,20.3,12.8,30.11,SE,126,0.0,0.0,72,0.00,,---,0.00,VWS V14.01,2013-01-26 12:18:00,
2013-01-26 07:23:00,20.3,12.8,30.11,SE,126,0.0,0.0,72,0.00,,---,0.00,VWS V14.01,2013-01-26 12:23:00,
2013-01-26 07:28:00,20.5,13.0,30.11,SE,126,0.0,0.0,72,0.00,,---,0.00,VWS V14.01,2013-01-26 12:28:00,
2013-01-26 07:33:00,20.5,13.0,30.11,SE,126,0.0,0.0,72,0.00,,---,0.00,VWS V14.01,2013-01-26 12:33:00,
2013-01-26 07:38:00,20.7,13.2,30.11,SE,126,0.0,0.0,72,0.00,,---,0.00,VWS V14.01,2013-01-26 12:38:00,
2013-01-26 07:43:00,20.8,13.3,30.11,SE,126,0.0,0.0,72,0.00,,---,0.00,VWS V14.01,2013-01-26 12:43:00,
2013-01-26 07:49:00,21.0,13.5,30.11,SE,126,0.0,0.0,72,0.00,,---,0.00,VWS V14.01,2013-01-26 12:49:00,
2013-01-26 07:54:00,21.2,14.1,30.11,SE,126,0.0,0.0,74,0.00,,---,0.00,VWS V14.01,2013-01-26 12:54:00,
2013-01-26 07:59:00,21.2,14.1,30.14,SE,126,0.0,0.0,74,0.00,,---,0.00,VWS V14.01,2013-01-26 12:59:00,
2013-01-26 08:04:00,21.4,13.9,30.14,SE,126,0.0,0.0,72,0.00,,---,0.00,VWS V14.01,2013-01-26 13:04:00,
2013-01-26 08:09:00,21.6,14.0,30.14,SE,126,0.0,0.0,72,0.00,,---,0.00,VWS V14.01,2013-01-26 13:09:00,
2013-01-26 08:14:00,21.7,14.2,30.11,SE,126,0.0,0.0,72,0.00,,---,0.00,VWS V14.01,2013-01-26 13:14:00,
2013-01-26 08:20:00,21.9,14.8,30.11,SE,126,0.0,0.0,74,0.00,,---,0.00,VWS V14.01,2013-01-26 13:20:00,
2013-01-26 08:25:00,22.1,15.0,30.11,SE,126,0.0,0.0,74,0.00,,---,0.00,VWS V14.01,2013-01-26 13:25:00,
2013-01-26 08:30:00,22.3,15.2,30.14,SE,126,0.0,0.0,74,0.00,,---,0.00,VWS V14.01,2013-01-26 13:30:00,
2013-01-26 08:35:00,22.5,15.3,30.14,SE,126,0.0,0.0,74,0.00,,---,0.00,VWS V14.01,2013-01-26 13:35:00,
2013-01-26 08:40:00,22.8,15.7,30.14,SE,126,0.0,0.0,74,0.00,,---,0.00,VWS V14.01,2013-01-26 13:40:00,
2013-01-26 08:45:00,23.0,15.9,30.14,SE,126,0.0,0.0,74,0.00,,---,0.00,VWS V14.01,2013-01-26 13:45:00,
2013-01-26 08:51:00,23.4,16.2,30.14,SE,126,0.0,0.0,74,0.00,,---,0.00,VWS V14.01,2013-01-26 13:51:00,
2013-01-26 08:56:00,23.7,16.6,30.14,SE,126,0.0,0.0,74,0.00,,---,0.00,VWS V14.01,2013-01-26 13:56:00,
2013-01-26 09:01:00,24.1,16.9,30.14,SE,126,0.0,0.0,74,0.00,,---,0.00,VWS V14.01,2013-01-26 14:01:00,
2013-01-26 09:06:00,24.4,17.2,30.14,SE,126,0.0,0.0,74,0.00,,---,0.00,VWS V14.01,2013-01-26 14:06:00,
2013-01-26 09:11:00,24.8,17.6,30.16,SE,126,0.0,0.0,74,0.00,,---,0.00,VWS V14.01,2013-01-26 14:11:00,
2013-01-26 09:16:00,25.2,18.0,30.16,SE,126,0.0,0.0,74,0.00,,---,0.00,VWS V14.01,2013-01-26 14:16:00,
2013-01-26 09:21:00,25.5,18.3,30.16,SE,126,0.0,0.0,74,0.00,,---,0.00,VWS V14.01,2013-01-26 14:21:00,
2013-01-26 09:26:00,25.9,18.6,30.16,SE,126,0.0,0.0,74,0.00,,---,0.00,VWS V14.01,2013-01-26 14:26:00,
2013-01-26 09:32:00,26.1,18.8,30.16,SE,126,0.0,0.0,74,0.00,,---,0.00,VWS V14.01,2013-01-26 14:32:00,
2013-01-26 09:37:00,26.4,19.2,30.16,SE,126,0.0,0.0,74,0.00,,---,0.00,VWS V14.01,2013-01-26 14:37:00,
2013-01-26 09:42:00,26.6,19.3,30.16,SE,126,0.0,0.0,74,0.00,,---,0.00,VWS V14.01,2013-01-26 14:42:00,
2013-01-26 09:47:00,27.0,19.2,30.16,SE,126,0.0,0.0,72,0.00,,---,0.00,VWS V14.01,2013-01-26 14:47:00,
2013-01-26 09:52:00,27.1,19.9,30.16,SE,126,0.0,0.0,74,0.00,,---,0.00,VWS V14.01,2013-01-26 14:52:00,
2013-01-26 09:57:00,27.7,20.4,30.16,SE,126,0.0,0.0,74,0.00,,---,0.00,VWS V14.01,2013-01-26 14:57:00,
2013-01-26 10:02:00,28.0,20.7,30.16,SE,126,0.0,0.0,74,0.00,,---,0.00,VWS V14.01,2013-01-26 15:02:00,
2013-01-26 10:07:00,28.4,21.1,30.16,SE,126,0.0,0.0,74,0.00,,---,0.00,VWS V14.01,2013-01-26 15:07:00,
2013-01-26 10:12:00,28.8,21.0,30.16,SW,224,0.0,0.0,72,0.00,,---,0.00,VWS V14.01,2013-01-26 15:12:00,
2013-01-26 10:17:00,29.1,21.3,30.16,WSW,237,3.9,4.5,72,0.00,,---,0.00,VWS V14.01,2013-01-26 15:17:00,
2013-01-26 10:22:00,29.8,22.0,30.16,WSW,246,0.0,0.0,72,0.00,,---,0.00,VWS V14.01,2013-01-26 15:22:00,
2013-01-26 10:28:00,30.4,22.1,30.16,WSW,241,0.0,0.0,71,0.00,,---,0.00,VWS V14.01,2013-01-26 15:28:00,
2013-01-26 10:33:00,30.7,22.0,30.16,NNW,346,0.0,0.0,70,0.00,,---,0.00,VWS V14.01,2013-01-26 15:33:00,
2013-01-26 10:38:00,31.1,22.3,30.16,WNW,286,0.0,0.0,70,0.00,,---,0.00,VWS V14.01,2013-01-26 15:38:00,
2013-01-26 10:43:00,31.3,22.0,30.16,SW,224,0.0,0.0,68,0.00,,---,0.00,VWS V14.01,2013-01-26 15:43:00,
2013-01-26 10:48:00,31.6,22.3,30.16,NNW,329,0.0,0.0,68,0.00,,---,0.00,VWS V14.01,2013-01-26 15:48:00,
2013-01-26 10:53:00,31.8,22.0,30.16,WNW,283,0.0,0.0,67,0.00,,---,0.00,VWS V14.01,2013-01-26 15:53:00,
2013-01-26 10:59:00,32.0,22.2,30.16,NNW,329,0.0,0.0,67,0.00,,---,0.00,VWS V14.01,2013-01-26 15:59:00,
2013-01-26 11:04:00,32.2,22.4,30.16,NNW,339,0.0,0.0,67,0.00,,---,0.00,VWS V14.01,2013-01-26 16:04:00,
2013-01-26 11:09:00,32.5,22.2,30.16,WNW,293,0.0,0.0,65,0.00,,---,0.00,VWS V14.01,2013-01-26 16:09:00,
2013-01-26 11:14:00,32.7,21.9,30.16,West,260,0.0,0.0,64,0.00,,---,0.00,VWS V14.01,2013-01-26 16:14:00,
2013-01-26 11:19:00,32.9,21.5,30.16,West,263,3.2,3.9,63,0.00,,---,0.00,VWS V14.01,2013-01-26 16:19:00,
2013-01-26 11:24:00,33.3,21.9,30.16,WNW,293,3.2,3.2,63,0.00,,---,0.00,VWS V14.01,2013-01-26 16:24:00,
2013-01-26 11:29:00,33.4,21.5,30.16,NNW,338,3.2,3.2,61,0.00,,---,0.00,VWS V14.01,2013-01-26 16:29:00,
2013-01-26 11:34:00,33.8,21.9,30.16,SW,217,0.0,0.0,61,0.00,,---,0.00,VWS V14.01,2013-01-26 16:34:00,
2013-01-26 11:39:00,33.8,21.9,30.16,SW,229,0.0,0.0,61,0.00,,---,0.00,VWS V14.01,2013-01-26 16:39:00,
2013-01-26 11:45:00,34.0,22.0,30.16,WSW,237,0.0,3.9,61,0.00,,---,0.00,VWS V14.01,2013-01-26 16:45:00,
2013-01-26 11:50:00,34.2,21.6,30.16,NNW,331,5.2,5.2,60,0.00,,---,0.00,VWS V14.01,2013-01-26 16:50:00,
2013-01-26 11:55:00,34.3,21.8,30.16,North,0,0.0,0.0,60,0.00,,---,0.00,VWS V14.01,2013-01-26 16:55:00,
2013-01-26 12:00:00,34.3,21.3,30.16,SW,234,0.0,0.0,58,0.00,,---,0.00,VWS V14.01,2013-01-26 17:00:00,
2013-01-26 12:05:00,34.5,21.4,30.16,NW,310,5.2,5.8,58,0.00,,---,0.00,VWS V14.01,2013-01-26 17:05:00,
2013-01-26 12:10:00,34.5,21.4,30.16,West,269,0.0,3.2,58,0.00,,---,0.00,VWS V14.01,2013-01-26 17:10:00,
2013-01-26 12:15:00,34.9,21.8,30.16,SSW,212,5.2,5.2,58,0.00,,---,0.00,VWS V14.01,2013-01-26 17:15:00,
2013-01-26 12:20:00,35.1,21.9,30.16,NNW,336,0.0,0.0,58,0.00,,---,0.00,VWS V14.01,2013-01-26 17:20:00,
2013-01-26 12:25:00,35.2,22.1,30.16,WSW,244,3.2,5.8,58,0.00,,---,0.00,VWS V14.01,2013-01-26 17:25:00,
2013-01-26 12:31:00,35.4,21.7,30.14,WNW,289,0.0,0.0,57,0.00,,---,0.00,VWS V14.01,2013-01-26 17:31:00,
2013-01-26 12:36:00,35.4,21.7,30.14,NNW,331,0.0,4.5,57,0.00,,---,0.00,VWS V14.01,2013-01-26 17:36:00,
2013-01-26 12:41:00,35.4,21.1,30.14,NW,307,0.0,3.2,56,0.00,,---,0.00,VWS V14.01,2013-01-26 17:41:00,
2013-01-26 12:46:00,35.4,21.1,30.14,NW,312,0.0,0.0,56,0.00,,---,0.00,VWS V14.01,2013-01-26 17:46:00,
2013-01-26 12:51:00,35.4,21.1,30.14,WNW,296,3.2,4.5,56,0.00,,---,0.00,VWS V14.01,2013-01-26 17:51:00,
2013-01-26 12:56:00,35.6,21.3,30.14,SSW,192,0.0,0.0,56,0.00,,---,0.00,VWS V14.01,2013-01-26 17:56:00,
2013-01-26 13:01:00,35.8,21.5,30.14,WSW,241,0.0,0.0,56,0.00,,---,0.00,VWS V14.01,2013-01-26 18:01:00,
2013-01-26 13:06:00,36.1,21.8,30.14,SW,235,0.0,0.0,56,0.00,,---,0.00,VWS V14.01,2013-01-26 18:06:00,
2013-01-26 13:11:00,36.3,22.0,30.14,NW,313,4.5,5.2,56,0.00,,---,0.00,VWS V14.01,2013-01-26 18:11:00,
2013-01-26 13:17:00,36.3,22.0,30.14,SW,222,7.8,7.8,56,0.00,,---,0.00,VWS V14.01,2013-01-26 18:17:00,
2013-01-26 13:22:00,36.1,21.8,30.14,NW,322,3.2,5.2,56,0.00,,---,0.00,VWS V14.01,2013-01-26 18:22:00,
2013-01-26 13:27:00,36.3,21.4,30.14,West,272,0.0,4.5,54,0.00,,---,0.00,VWS V14.01,2013-01-26 18:27:00,
2013-01-26 13:32:00,36.5,21.5,30.14,SW,216,0.0,5.2,54,0.00,,---,0.00,VWS V14.01,2013-01-26 18:32:00,
2013-01-26 13:37:00,36.9,21.9,30.14,West,275,5.2,5.2,54,0.00,,---,0.00,VWS V14.01,2013-01-26 18:37:00,
2013-01-26 13:42:00,36.7,21.1,30.14,NW,320,0.0,3.2,53,0.00,,---,0.00,VWS V14.01,2013-01-26 18:42:00,
2013-01-26 13:47:00,36.3,20.8,30.14,West,278,3.2,3.2,53,0.00,,---,0.00,VWS V14.01,2013-01-26 18:47:00,
2013-01-26 13:53:00,36.3,20.8,30.14,NW,313,0.0,0.0,53,0.00,,---,0.00,VWS V14.01,2013-01-26 18:53:00,
2013-01-26 13:58:00,36.7,21.1,30.14,SW,232,0.0,5.2,53,0.00,,---,0.00,VWS V14.01,2013-01-26 18:58:00,
2013-01-26 14:03:00,37.0,21.4,30.14,SW,226,0.0,5.2,53,0.00,,---,0.00,VWS V14.01,2013-01-26 19:03:00,
2013-01-26 14:08:00,37.4,21.1,30.14,West,265,0.0,0.0,51,0.00,,---,0.00,VWS V14.01,2013-01-26 19:08:00,
2013-01-26 14:13:00,37.4,20.5,30.14,WSW,255,5.2,5.2,50,0.00,,---,0.00,VWS V14.01,2013-01-26 19:13:00,
2013-01-26 14:18:00,37.6,20.7,30.14,WSW,243,4.5,12.6,50,0.00,,---,0.00,VWS V14.01,2013-01-26 19:18:00,
2013-01-26 14:23:00,37.9,21.0,30.14,WSW,240,3.9,3.9,50,0.00,,---,0.00,VWS V14.01,2013-01-26 19:23:00,
2013-01-26 14:29:00,37.9,21.0,30.14,NW,325,0.0,4.5,50,0.00,,---,0.00,VWS V14.01,2013-01-26 19:29:00,
2013-01-26 14:34:00,38.5,22.1,30.14,WNW,286,5.2,5.2,51,0.00,,---,0.00,VWS V14.01,2013-01-26 19:34:00,
2013-01-26 14:39:00,39.0,22.0,30.14,NNE,33,4.5,10.4,50,0.00,,---,0.00,VWS V14.01,2013-01-26 19:39:00,
2013-01-26 14:44:00,39.2,21.5,30.14,NW,322,3.2,4.5,49,0.00,,---,0.00,VWS V14.01,2013-01-26 19:44:00,
2013-01-26 14:49:00,39.2,20.8,30.14,ENE,72,0.0,3.9,47,0.00,,---,0.00,VWS V14.01,2013-01-26 19:49:00,
2013-01-26 14:54:00,39.0,20.6,30.14,NW,325,0.0,5.8,47,0.00,,---,0.00,VWS V14.01,2013-01-26 19:54:00,
2013-01-26 14:59:00,39.0,19.9,30.14,West,260,3.9,5.8,46,0.00,,---,0.00,VWS V14.01,2013-01-26 19:59:00,
2013-01-26 15:04:00,38.8,19.8,30.14,SW,219,3.9,5.8,46,0.00,,---,0.00,VWS V14.01,2013-01-26 20:04:00,
2013-01-26 15:09:00,38.8,19.8,30.14,WNW,302,0.0,0.0,46,0.00,,---,0.00,VWS V14.01,2013-01-26 20:09:00,
2013-01-26 15:14:00,38.7,19.6,30.14,SW,222,0.0,5.2,46,0.00,,---,0.00,VWS V14.01,2013-01-26 20:14:00,
2013-01-26 15:19:00,38.5,19.5,30.14,West,274,5.8,5.8,46,0.00,,---,0.00,VWS V14.01,2013-01-26 20:19:00,
2013-01-26 15:24:00,38.5,19.5,30.14,NW,306,5.2,8.4,46,0.00,,---,0.00,VWS V14.01,2013-01-26 20:24:00,
2013-01-26 15:30:00,38.1,19.1,30.16,NNW,345,0.0,5.8,46,0.00,,---,0.00,VWS V14.01,2013-01-26 20:30:00,
2013-01-26 15:35:00,38.1,19.1,30.16,South,182,4.5,4.5,46,0.00,,---,0.00,VWS V14.01,2013-01-26 20:35:00,
2013-01-26 15:40:00,37.9,19.0,30.16,WSW,246,5.8,8.4,46,0.00,,---,0.00,VWS V14.01,2013-01-26 20:40:00,
2013-01-26 15:45:00,37.9,19.0,30.16,North,0,9.7,9.7,46,0.00,,---,0.00,VWS V14.01,2013-01-26 20:45:00,
2013-01-26 15:50:00,37.8,18.8,30.16,SSW,207,3.2,7.8,46,0.00,,---,0.00,VWS V14.01,2013-01-26 20:50:00,
2013-01-26 15:55:00,37.8,18.8,30.16,NNW,332,0.0,7.8,46,0.00,,---,0.00,VWS V14.01,2013-01-26 20:55:00,
2013-01-26 16:00:00,37.8,18.8,30.16,North,357,3.2,7.1,46,0.00,,---,0.00,VWS V14.01,2013-01-26 21:00:00,
2013-01-26 16:05:00,37.8,18.8,30.16,NNW,345,3.2,3.2,46,0.00,,---,0.00,VWS V14.01,2013-01-26 21:05:00,
2013-01-26 16:11:00,37.9,19.0,30.16,WSW,257,3.2,4.5,46,0.00,,---,0.00,VWS V14.01,2013-01-26 21:11:00,
2013-01-26 16:16:00,37.9,19.0,30.16,WSW,255,0.0,0.0,46,0.00,,---,0.00,VWS V14.01,2013-01-26 21:16:00,
2013-01-26 16:21:00,38.1,19.1,30.16,NW,305,0.0,0.0,46,0.00,,---,0.00,VWS V14.01,2013-01-26 21:21:00,
2013-01-26 16:26:00,38.1,19.1,30.16,WSW,245,0.0,0.0,46,0.00,,---,0.00,VWS V14.01,2013-01-26 21:26:00,
2013-01-26 16:31:00,38.3,18.6,30.16,NNW,339,7.1,9.7,44,0.00,,---,0.00,VWS V14.01,2013-01-26 21:31:00,
2013-01-26 16:36:00,38.1,18.4,30.16,NNW,336,4.5,5.2,44,0.00,,---,0.00,VWS V14.01,2013-01-26 21:36:00,
2013-01-26 16:41:00,37.9,18.2,30.16,NNE,31,5.8,5.8,44,0.00,,---,0.00,VWS V14.01,2013-01-26 21:41:00,
2013-01-26 16:47:00,37.6,17.9,30.16,North,357,4.5,5.2,44,0.00,,---,0.00,VWS V14.01,2013-01-26 21:47:00,
2013-01-26 16:52:00,37.4,17.8,30.16,NNW,340,5.2,7.8,44,0.00,,---,0.00,VWS V14.01,2013-01-26 21:52:00,
2013-01-26 16:57:00,37.0,17.4,30.19,North,0,5.2,7.1,44,0.00,,---,0.00,VWS V14.01,2013-01-26 21:57:00,
2013-01-26 17:02:00,36.9,17.2,30.19,North,349,5.8,5.8,44,0.00,,---,0.00,VWS V14.01,2013-01-26 22:02:00,
2013-01-26 17:07:00,36.7,17.1,30.19,North,2,7.8,9.1,44,0.00,,---,0.00,VWS V14.01,2013-01-26 22:07:00,
2013-01-26 17:12:00,36.3,16.8,30.19,NNE,18,7.1,9.1,44,0.00,,---,0.00,VWS V14.01,2013-01-26 22:12:00,
2013-01-26 17:17:00,36.0,16.4,30.19,North,357,4.5,5.2,44,0.00,,---,0.00,VWS V14.01,2013-01-26 22:17:00,
2013-01-26 17:22:00,35.6,16.1,30.19,North,353,6.5,7.1,44,0.00,,---,0.00,VWS V14.01,2013-01-26 22:22:00,
2013-01-26 17:27:00,35.4,16.6,30.19,North,4,5.2,5.8,46,0.00,,---,0.00,VWS V14.01,2013-01-26 22:27:00,
2013-01-26 17:33:00,35.1,16.3,30.19,North,353,5.2,5.2,46,0.00,,---,0.00,VWS V14.01,2013-01-26 22:33:00,
2013-01-26 17:38:00,34.7,16.0,30.19,North,353,7.8,7.8,46,0.00,,---,0.00,VWS V14.01,2013-01-26 22:38:00,
2013-01-26 17:43:00,34.3,15.7,30.22,North,2,3.9,3.9,46,0.00,,---,0.00,VWS V14.01,2013-01-26 22:43:00,
2013-01-26 17:48:00,34.0,15.3,30.22,NNE,15,3.9,5.8,46,0.00,,---,0.00,VWS V14.01,2013-01-26 22:48:00,
2013-01-26 17:53:00,33.8,15.2,30.22,North,357,5.2,7.1,46,0.00,,---,0.00,VWS V14.01,2013-01-26 22:53:00,
2013-01-26 17:58:00,33.3,14.7,30.22,NNE,14,4.5,5.2,46,0.00,,---,0.00,VWS V14.01,2013-01-26 22:58:00,
2013-01-26 18:04:00,33.1,14.5,30.22,North,7,0.0,3.9,46,0.00,,---,0.00,VWS V14.01,2013-01-26 23:04:00,
2013-01-26 18:09:00,32.7,14.2,30.22,North,10,0.0,3.9,46,0.00,,---,0.00,VWS V14.01,2013-01-26 23:09:00,
2013-01-26 18:14:00,32.2,13.7,30.22,North,4,0.0,0.0,46,0.00,,---,0.00,VWS V14.01,2013-01-26 23:14:00,
2013-01-26 18:19:00,32.0,14.2,30.22,North,10,3.9,3.9,47,0.00,,---,0.00,VWS V14.01,2013-01-26 23:19:00,
2013-01-26 18:24:00,31.5,13.7,30.22,NNE,16,0.0,3.9,47,0.00,,---,0.00,VWS V14.01,2013-01-26 23:24:00,
2013-01-26 18:29:00,31.1,13.4,30.25,NNE,12,0.0,3.9,47,0.00,,---,0.00,VWS V14.01,2013-01-26 23:29:00,
2013-01-26 18:34:00,30.7,13.0,30.25,NNE,13,3.2,3.2,47,0.00,,---,0.00,VWS V14.01,2013-01-26 23:34:00,
2013-01-26 18:39:00,30.4,12.7,30.25,North,5,0.0,0.0,47,0.00,,---,0.00,VWS V14.01,2013-01-26 23:39:00,
2013-01-26 18:44:00,30.2,12.5,30.25,North,5,0.0,0.0,47,0.00,,---,0.00,VWS V14.01,2013-01-26 23:44:00,
2013-01-26 18:50:00,30.0,12.4,30.25,North,8,0.0,0.0,47,0.00,,---,0.00,VWS V14.01,2013-01-26 23:50:00,
2013-01-26 18:55:00,29.7,12.7,30.25,North,8,0.0,0.0,49,0.00,,---,0.00,VWS V14.01,2013-01-26 23:55:00,
2013-01-26 19:00:00,29.3,12.4,30.25,North,8,0.0,0.0,49,0.00,,---,0.00,VWS V14.01,2013-01-27 00:00:00,
2013-01-26 19:05:00,28.9,12.0,30.25,North,8,0.0,0.0,49,0.00,,---,0.00,VWS V14.01,2013-01-27 00:05:00,
2013-01-26 19:10:00,28.6,11.7,30.25,North,8,0.0,0.0,49,0.00,,---,0.00,VWS V14.01,2013-01-27 00:10:00,
2013-01-26 19:15:00,28.4,11.5,30.25,North,9,0.0,0.0,49,0.00,,---,0.00,VWS V14.01,2013-01-27 00:15:00,
2013-01-26 19:20:00,28.2,11.4,30.25,North,9,0.0,0.0,49,0.00,,---,0.00,VWS V14.01,2013-01-27 00:20:00,
2013-01-26 19:26:00,27.9,11.7,30.25,North,9,0.0,0.0,50,0.00,,---,0.00,VWS V14.01,2013-01-27 00:26:00,
2013-01-26 19:31:00,27.9,11.7,30.28,North,9,0.0,0.0,50,0.00,,---,0.00,VWS V14.01,2013-01-27 00:31:00,
2013-01-26 19:36:00,27.5,11.3,30.28,North,9,0.0,0.0,50,0.00,,---,0.00,VWS V14.01,2013-01-27 00:36:00,
2013-01-26 19:41:00,27.1,11.0,30.28,North,9,0.0,0.0,50,0.00,,---,0.00,VWS V14.01,2013-01-27 00:41:00,
2013-01-26 19:46:00,27.0,10.8,30.28,North,9,0.0,0.0,50,0.00,,---,0.00,VWS V14.01,2013-01-27 00:46:00,
2013-01-26 19:51:00,27.0,11.4,30.28,North,9,0.0,0.0,51,0.00,,---,0.00,VWS V14.01,2013-01-27 00:51:00,
2013-01-26 19:56:00,26.8,11.3,30.28,North,9,0.0,0.0,51,0.00,,---,0.00,VWS V14.01,2013-01-27 00:56:00,
2013-01-26 20:01:00,26.6,11.7,30.28,North,9,0.0,0.0,53,0.00,,---,0.00,VWS V14.01,2013-01-27 01:01:00,
2013-01-26 20:06:00,26.4,11.5,30.28,North,9,0.0,0.0,53,0.00,,---,0.00,VWS V14.01,2013-01-27 01:06:00,
2013-01-26 20:12:00,26.1,11.2,30.28,North,11,0.0,0.0,53,0.00,,---,0.00,VWS V14.01,2013-01-27 01:12:00,
2013-01-26 20:17:00,26.1,11.2,30.28,North,11,0.0,0.0,53,0.00,,---,0.00,VWS V14.01,2013-01-27 01:17:00,
2013-01-26 20:22:00,25.7,11.5,30.28,North,11,0.0,0.0,54,0.00,,---,0.00,VWS V14.01,2013-01-27 01:22:00,
2013-01-26 20:27:00,25.5,11.3,30.28,North,11,0.0,0.0,54,0.00,,---,0.00,VWS V14.01,2013-01-27 01:27:00,
2013-01-26 20:32:00,25.3,11.1,30.28,North,11,0.0,0.0,54,0.00,,---,0.00,VWS V14.01,2013-01-27 01:32:00,
2013-01-26 20:37:00,25.3,11.1,30.28,North,11,0.0,0.0,54,0.00,,---,0.00,VWS V14.01,2013-01-27 01:37:00,
2013-01-26 20:42:00,25.2,11.5,30.31,North,11,0.0,0.0,56,0.00,,---,0.00,VWS V14.01,2013-01-27 01:42:00,
2013-01-26 20:48:00,25.0,11.4,30.31,NNE,14,0.0,0.0,56,0.00,,---,0.00,VWS V14.01,2013-01-27 01:48:00,
2013-01-26 20:53:00,24.8,11.7,30.31,NNE,19,0.0,0.0,57,0.00,,---,0.00,VWS V14.01,2013-01-27 01:53:00,
2013-01-26 20:58:00,24.6,11.6,30.31,NNE,19,0.0,0.0,57,0.00,,---,0.00,VWS V14.01,2013-01-27 01:58:00,
2013-01-26 21:03:00,24.4,11.4,30.31,NNE,19,0.0,0.0,57,0.00,,---,0.00,VWS V14.01,2013-01-27 02:03:00,
2013-01-26 21:08:00,24.3,11.8,30.31,NNE,19,0.0,0.0,58,0.00,,---,0.00,VWS V14.01,2013-01-27 02:08:00,
2013-01-26 21:13:00,24.1,11.6,30.31,NNE,19,0.0,0.0,58,0.00,,---,0.00,VWS V14.01,2013-01-27 02:13:00,
2013-01-26 21:18:00,24.1,11.6,30.31,NNE,20,0.0,0.0,58,0.00,,---,0.00,VWS V14.01,2013-01-27 02:18:00,
2013-01-26 21:24:00,23.9,11.4,30.31,East,99,3.2,3.2,58,0.00,,---,0.00,VWS V14.01,2013-01-27 02:24:00,
2013-01-26 21:29:00,23.7,11.3,30.31,ESE,111,3.2,3.2,58,0.00,,---,0.00,VWS V14.01,2013-01-27 02:29:00,
2013-01-26 21:34:00,23.7,11.3,30.31,ESE,111,0.0,0.0,58,0.00,,---,0.00,VWS V14.01,2013-01-27 02:34:00,
2013-01-26 21:39:00,23.5,11.1,30.31,ESE,111,0.0,0.0,58,0.00,,---,0.00,VWS V14.01,2013-01-27 02:39:00,
2013-01-26 21:44:00,23.5,11.1,30.34,ESE,111,0.0,0.0,58,0.00,,---,0.00,VWS V14.01,2013-01-27 02:44:00,
2013-01-26 21:49:00,23.5,11.1,30.34,ESE,111,0.0,0.0,58,0.00,,---,0.00,VWS V14.01,2013-01-27 02:49:00,
2013-01-26 21:54:00,23.5,11.1,30.34,ESE,111,0.0,0.0,58,0.00,,---,0.00,VWS V14.01,2013-01-27 02:54:00,
2013-01-26 21:59:00,23.5,11.1,30.34,SE,132,3.2,3.2,58,0.00,,---,0.00,VWS V14.01,2013-01-27 02:59:00,
2013-01-26 22:05:00,23.5,11.1,30.34,SE,132,0.0,0.0,58,0.00,,---,0.00,VWS V14.01,2013-01-27 03:05:00,
2013-01-26 22:10:00,23.4,10.9,30.34,SE,133,0.0,0.0,58,0.00,,---,0.00,VWS V14.01,2013-01-27 03:10:00,
2013-01-26 22:15:00,23.5,11.1,30.34,SE,137,3.9,4.5,58,0.00,,---,0.00,VWS V14.01,2013-01-27 03:15:00,
2013-01-26 22:20:00,23.5,11.6,30.34,SE,143,0.0,3.9,60,0.00,,---,0.00,VWS V14.01,2013-01-27 03:20:00,
2013-01-26 22:25:00,23.5,11.6,30.34,SE,143,0.0,0.0,60,0.00,,---,0.00,VWS V14.01,2013-01-27 03:25:00,
2013-01-26 22:30:00,23.5,11.6,30.34,SE,143,3.9,3.9,60,0.00,,---,0.00,VWS V14.01,2013-01-27 03:30:00,
2013-01-26 22:35:00,23.7,11.8,30.34,SE,144,3.2,3.9,60,0.00,,---,0.00,VWS V14.01,2013-01-27 03:35:00,
2013-01-26 22:40:00,23.9,12.0,30.34,SE,144,3.2,3.2,60,0.00,,---,0.00,VWS V14.01,2013-01-27 03:40:00,
2013-01-26 22:45:00,23.9,12.0,30.37,SE,144,0.0,0.0,60,0.00,,---,0.00,VWS V14.01,2013-01-27 03:45:00,
2013-01-26 22:51:00,24.1,12.1,30.37,SE,144,0.0,0.0,60,0.00,,---,0.00,VWS V14.01,2013-01-27 03:51:00,
2013-01-26 22:56:00,24.3,12.3,30.37,SE,144,0.0,0.0,60,0.00,,---,0.00,VWS V14.01,2013-01-27 03:56:00,
2013-01-26 23:01:00,24.4,12.5,30.37,SE,144,0.0,0.0,60,0.00,,---,0.00,VWS V14.01,2013-01-27 04:01:00,
2013-01-26 23:06:00,24.4,12.5,30.37,SE,144,0.0,0.0,60,0.00,,---,0.00,VWS V14.01,2013-01-27 04:06:00,
2013-01-26 23:11:00,24.6,12.6,30.37,SE,144,0.0,0.0,60,0.00,,---,0.00,VWS V14.01,2013-01-27 04:11:00,
2013-01-26 23:16:00,24.6,13.2,30.37,SE,144,0.0,0.0,61,0.00,,---,0.00,VWS V14.01,2013-01-27 04:16:00,
2013-01-26 23:21:00,24.6,13.2,30.37,SE,144,0.0,0.0,61,0.00,,---,0.00,VWS V14.01,2013-01-27 04:21:00,
2013-01-26 23:27:00,24.6,13.2,30.37,SE,144,0.0,0.0,61,0.00,,---,0.00,VWS V14.01,2013-01-27 04:27:00,
2013-01-26 23:32:00,24.6,13.2,30.37,SE,144,0.0,0.0,61,0.00,,---,0.00,VWS V14.01,2013-01-27 04:32:00,
2013-01-26 23:37:00,24.6,13.2,30.37,SE,144,0.0,0.0,61,0.00,,---,0.00,VWS V14.01,2013-01-27 04:37:00,
2013-01-26 23:42:00,24.4,13.0,30.37,SE,144,0.0,0.0,61,0.00,,---,0.00,VWS V14.01,2013-01-27 04:42:00,
2013-01-26 23:47:00,24.4,13.0,30.37,SE,144,0.0,0.0,61,0.00,,---,0.00,VWS V14.01,2013-01-27 04:47:00,
2013-01-26 23:52:00,24.3,12.8,30.37,SE,144,0.0,0.0,61,0.00,,---,0.00,VWS V14.01,2013-01-27 04:52:00,
2013-01-26 23:57:00,24.3,12.8,30.37,SE,144,0.0,0.0,61,0.00,,---,0.00,VWS V14.01,2013-01-27 04:57:00,